Satellite Actuals Today Synoptics Week ahead

Actual weather at the Black Mountains Gliding Club.

METARs

Birmingham

2019/01/22 11:50
EGBB 221150Z 25004KT 190V290 9999 FEW025 04/01 Q1001

Brize Norton

2019/01/22 11:50
EGVN 221150Z 24004KT 9999 FEW010 SCT120 BKN250 04/01 Q1001 BLU TEMPO 5000 -SHRASN SCT020 WHT

Cardiff

2019/01/22 11:50
EGFF 221150Z AUTO 24006KT 9999 SCT010/// BKN044/// //////TCU 04/04 Q1002

Select station

2019/01/22 11:50
EGCC 221150Z 26007KT 9999 4000N -SHRASN SCT009CB BKN015 BKN029 02/M00 Q1000 TEMPO 2000 SHSN BKN004

Decode?  - Copy the METAR (from the station code) and paste it into the METARs/TAFs box here.

Webcams
Current Long Mynd West

Airfield webcams

Talgarth Airfield looking EAST
Talgarth Airfield looking NORTH
Talgarth Airfield looking WEST
Bidford
Cambridge
Dunstable
Lasham
Long Mynd
Usk Airfield (South Wales GC)
Nympsfield airfield
Aston Down
Staverton- looking NE.
Oxford
Shenington Airfield, near Banbury - from the clubhouse, looking north
Parham airfield Sussex [Southdown GC]
Lasham airfield Hampshire

General webcams

Abergavenny looking west towards the Blorenge
Abersoch - Llyn peninsula - 2
Alvechurch, North Worcs.
Brecon Beacons National Park Visitor Centre webcam
Llangorse webcam
Newbury
Newtown, Powys
Wye Valley webcam - different views can be selected
Snowdon